Time;durP1;ratioP1;P1;durP2;ratioP2;P2;SDS_P1;SDS_P2;PMS_P1;PMS_P2;Temp;Humidity;BMP_temperature;BMP_pressure;BME280_temperature;BME280_humidity;BME280_pressure;Samples;Min_cycle;Max_cycle;Signal;HPM_P1;HPM_P2
2022/05/21 00:02:08;;;;;;;4.80;4.40;;;19.40;67.00;;;;;;4984196;28;20192;-54
2022/05/21 00:04:34;;;;;;;4.60;4.20;;;19.30;78.10;;;;;;4990036;28;20435;-53
2022/05/21 00:06:59;;;;;;;5.67;4.40;;;19.30;49.00;;;;;;4989377;28;20189;-56
2022/05/21 00:09:27;;;;;;;4.60;4.03;;;19.30;52.20;;;;;;4990291;28;20474;-54
2022/05/21 00:11:53;;;;;;;4.53;4.13;;;19.30;54.20;;;;;;4988353;28;20204;-52
2022/05/21 00:14:20;;;;;;;4.80;4.40;;;19.30;54.70;;;;;;4986585;28;20435;-52
2022/05/21 00:16:46;;;;;;;4.70;4.33;;;19.30;34.00;;;;;;4986767;28;20456;-55
2022/05/21 00:19:12;;;;;;;4.70;4.30;;;19.30;44.60;;;;;;4989165;28;20439;-54
2022/05/21 00:21:38;;;;;;;4.90;4.50;;;19.20;43.50;;;;;;4990058;28;20835;-56
2022/05/21 00:24:03;;;;;;;7.93;4.70;;;19.30;33.60;;;;;;4989318;28;20184;-56
2022/05/21 00:26:29;;;;;;;5.33;4.93;;;19.30;25.30;;;;;;4980071;28;20602;-55
2022/05/21 00:28:54;;;;;;;6.40;5.80;;;19.30;22.80;;;;;;4989382;28;20204;-56
2022/05/21 00:31:20;;;;;;;8.20;4.07;;;19.30;8.90;;;;;;4988593;28;20895;-56
2022/05/21 00:33:47;;;;;;;7.00;4.33;;;19.30;10.10;;;;;;4987873;28;20196;-57
2022/05/21 00:36:13;;;;;;;4.73;4.33;;;19.30;8.00;;;;;;4990364;28;20451;-55
2022/05/21 00:38:40;;;;;;;5.20;4.70;;;19.30;1.00;;;;;;4985463;28;20451;-53
2022/05/21 00:41:07;;;;;;;6.03;4.80;;;19.20;1.00;;;;;;4984382;28;20898;-52
2022/05/21 00:43:32;;;;;;;5.33;4.90;;;19.10;1.00;;;;;;4988177;28;20507;-54
2022/05/21 00:45:59;;;;;;;5.53;5.13;;;19.00;1.00;;;;;;4988832;28;20790;-57
2022/05/21 00:48:25;;;;;;;6.50;4.97;;;18.90;1.00;;;;;;4990871;28;20192;-52
2022/05/21 00:50:52;;;;;;;4.30;4.00;;;18.90;1.00;;;;;;4990796;28;20489;-54
2022/05/21 00:53:18;;;;;;;4.90;4.37;;;18.80;1.00;;;;;;4980380;28;20520;-53
2022/05/21 00:55:44;;;;;;;4.50;4.10;;;18.80;99.90;;;;;;4975401;28;20475;-53
2022/05/21 01:00:57;;;;;;;4.67;4.27;;;18.70;99.90;;;;;;4981608;28;20185;-54
2022/05/21 01:03:27;;;;;;;4.20;3.90;;;18.70;1.00;;;;;;4989114;28;20434;-56
2022/05/21 01:05:53;;;;;;;4.17;3.87;;;18.50;99.90;;;;;;4986790;28;20655;-57
2022/05/21 01:08:18;;;;;;;4.07;3.77;;;18.40;99.90;;;;;;4989578;28;20442;-55
2022/05/21 01:10:50;;;;;;;4.13;3.73;;;18.30;1.00;;;;;;4989180;28;20190;-57
2022/05/21 01:13:19;;;;;;;3.40;3.20;;;18.10;1.00;;;;;;4989399;28;20212;-56
2022/05/21 01:15:49;;;;;;;4.43;4.03;;;18.10;1.00;;;;;;4990690;28;20446;-55
2022/05/21 01:18:15;;;;;;;4.10;3.80;;;17.90;1.00;;;;;;4989919;28;20573;-55
2022/05/21 01:20:44;;;;;;;3.57;3.37;;;17.90;1.00;;;;;;4990572;28;20504;-57
2022/05/21 01:23:11;;;;;;;4.13;3.83;;;17.90;1.00;;;;;;4988060;28;20504;-53
2022/05/21 01:25:38;;;;;;;4.83;3.90;;;17.80;1.00;;;;;;4986356;28;20853;-54
2022/05/21 01:28:08;;;;;;;3.93;3.63;;;17.80;1.00;;;;;;4978685;28;20935;-55
2022/05/21 01:30:49;;;;;;;4.00;3.70;;;17.70;1.00;;;;;;4981493;28;20462;-56
2022/05/21 01:33:17;;;;;;;4.10;3.80;;;17.70;1.00;;;;;;4981970;28;20746;-55
2022/05/21 01:35:45;;;;;;;4.27;3.90;;;17.60;1.00;;;;;;4986582;28;20445;-56
2022/05/21 01:38:12;;;;;;;4.30;4.00;;;17.60;1.00;;;;;;4988060;28;20499;-56
2022/05/21 01:40:38;;;;;;;4.00;3.70;;;17.40;1.00;;;;;;4987379;28;21137;-56
2022/05/21 01:45:52;;;;;;;3.83;3.53;;;17.30;1.00;;;;;;4987296;28;21002;-57
2022/05/21 01:48:19;;;;;;;3.87;3.57;;;17.20;1.00;;;;;;4988406;28;20429;-53
2022/05/21 01:50:45;;;;;;;3.97;3.67;;;17.30;1.00;;;;;;4984152;28;20442;-54
2022/05/21 01:53:11;;;;;;;3.70;3.40;;;17.20;1.00;;;;;;4980097;28;20474;-56
2022/05/21 01:55:38;;;;;;;4.60;4.23;;;17.20;1.00;;;;;;4987260;28;20472;-55
2022/05/21 01:58:04;;;;;;;4.17;3.87;;;17.20;1.00;;;;;;4978124;28;20844;-54
2022/05/21 02:00:30;;;;;;;3.70;3.40;;;17.20;1.00;;;;;;4987970;28;20837;-52
2022/05/21 02:02:55;;;;;;;4.00;3.37;;;17.20;1.00;;;;;;4986000;28;20454;-56
2022/05/21 02:05:21;;;;;;;3.90;3.60;;;17.20;1.00;;;;;;4992511;28;20204;-54
2022/05/21 02:07:46;;;;;;;4.00;3.60;;;17.20;1.00;;;;;;4991059;28;20192;-56
2022/05/21 02:10:12;;;;;;;3.87;3.57;;;17.20;1.00;;;;;;4991732;28;20496;-47
2022/05/21 02:12:39;;;;;;;3.50;3.20;;;17.10;1.00;;;;;;4990526;28;20205;-50
2022/05/21 02:15:05;;;;;;;3.17;2.97;;;17.00;1.00;;;;;;4983912;28;20192;-49
2022/05/21 02:17:31;;;;;;;2.97;2.77;;;16.90;1.00;;;;;;4989421;28;20439;-52
2022/05/21 02:19:56;;;;;;;3.90;2.60;;;16.90;1.00;;;;;;4990498;28;20499;-52
2022/05/21 02:22:22;;;;;;;2.87;2.57;;;16.90;1.00;;;;;;4991188;28;20193;-51
2022/05/21 02:24:47;;;;;;;3.30;3.00;;;16.90;1.00;;;;;;4985199;28;20232;-53
2022/05/21 02:27:14;;;;;;;2.83;2.63;;;16.80;1.00;;;;;;4987838;28;20198;-51
2022/05/21 02:29:43;;;;;;;2.60;2.27;;;16.70;1.00;;;;;;4977697;28;20435;-51
2022/05/21 02:32:11;;;;;;;2.43;2.23;;;16.70;1.00;;;;;;4987411;28;20572;-55
2022/05/21 02:34:36;;;;;;;2.63;2.43;;;16.70;1.00;;;;;;4991931;28;20437;-52
2022/05/21 02:39:46;;;;;;;3.27;2.60;;;16.60;1.00;;;;;;4991698;28;20785;-49
2022/05/21 02:44:56;;;;;;;2.13;2.03;;;16.50;1.00;;;;;;4991608;28;20485;-50
2022/05/21 02:47:23;;;;;;;2.40;2.30;;;16.50;1.00;;;;;;4991058;28;20429;-50
2022/05/21 02:49:49;;;;;;;2.50;2.30;;;16.40;99.90;;;;;;4987510;28;20520;-52
2022/05/21 02:52:15;;;;;;;2.57;2.33;;;16.40;99.90;;;;;;4985191;28;20471;-52
2022/05/21 02:54:41;;;;;;;2.90;2.40;;;16.30;99.90;;;;;;4991892;28;20216;-51
2022/05/21 02:57:09;;;;;;;2.70;2.50;;;16.30;99.90;;;;;;4989858;28;20516;-54
2022/05/21 02:59:36;;;;;;;2.47;2.27;;;16.30;99.90;;;;;;4992389;28;20416;-53
2022/05/21 03:02:02;;;;;;;2.80;2.60;;;16.20;99.90;;;;;;4987321;28;20444;-50
2022/05/21 03:04:28;;;;;;;2.50;2.30;;;16.20;99.90;;;;;;4988571;28;20448;-54
2022/05/21 03:06:53;;;;;;;2.83;2.63;;;16.10;99.90;;;;;;4985932;28;20980;-52
2022/05/21 03:12:04;;;;;;;2.90;2.70;;;16.00;99.90;;;;;;4989973;28;20255;-51
2022/05/21 03:14:30;;;;;;;3.00;2.70;;;16.00;99.90;;;;;;4987022;28;20432;-53
2022/05/21 03:16:59;;;;;;;2.80;2.50;;;16.00;99.90;;;;;;4979065;28;20417;-50
2022/05/21 03:19:26;;;;;;;3.13;2.93;;;15.90;99.90;;;;;;4981371;28;20459;-54
2022/05/21 03:21:51;;;;;;;2.87;2.67;;;15.90;99.90;;;;;;4979068;28;20468;-52
2022/05/21 03:24:17;;;;;;;4.87;3.10;;;15.90;99.90;;;;;;4991025;28;20501;-52
2022/05/21 03:26:42;;;;;;;2.87;2.67;;;15.80;99.90;;;;;;4984976;28;20189;-52
2022/05/21 03:29:08;;;;;;;2.80;2.60;;;15.80;99.90;;;;;;4989641;28;20188;-54
2022/05/21 03:31:34;;;;;;;3.30;3.00;;;15.70;99.90;;;;;;4985162;28;20231;-51
2022/05/21 03:33:59;;;;;;;3.10;2.83;;;15.70;1.00;;;;;;4988660;28;20267;-50
2022/05/21 03:36:25;;;;;;;3.00;2.70;;;15.60;99.90;;;;;;4983773;28;20181;-53
2022/05/21 03:38:51;;;;;;;3.10;2.80;;;15.70;99.90;;;;;;4980583;28;20726;-55
2022/05/21 03:41:16;;;;;;;3.23;2.93;;;15.70;1.00;;;;;;4984648;28;20243;-54
2022/05/21 03:43:44;;;;;;;3.17;2.97;;;15.60;99.90;;;;;;4988308;28;20474;-51
2022/05/21 03:46:10;;;;;;;3.80;3.43;;;15.70;99.90;;;;;;4988927;28;20242;-49
2022/05/21 03:48:36;;;;;;;4.13;3.70;;;15.70;99.90;;;;;;4988917;28;20803;-52
2022/05/21 03:51:01;;;;;;;3.53;3.33;;;15.70;99.90;;;;;;4986652;28;20501;-51
2022/05/21 03:53:28;;;;;;;4.00;3.70;;;15.70;99.90;;;;;;4988958;28;20226;-55
2022/05/21 03:55:54;;;;;;;4.10;3.80;;;15.70;99.90;;;;;;4990045;28;20259;-54
2022/05/21 03:58:20;;;;;;;3.80;3.50;;;15.70;99.90;;;;;;4989752;28;20457;-54
2022/05/21 04:00:46;;;;;;;4.73;4.33;;;15.70;99.90;;;;;;4982342;28;20448;-50
2022/05/21 04:03:11;;;;;;;4.73;4.33;;;15.60;99.90;;;;;;4988923;28;20490;-53
2022/05/21 04:05:37;;;;;;;3.80;3.50;;;15.70;99.90;;;;;;4989797;28;20192;-50
2022/05/21 04:08:04;;;;;;;5.30;4.10;;;15.60;99.90;;;;;;4989607;28;20253;-52
2022/05/21 04:10:29;;;;;;;5.37;4.47;;;15.50;99.90;;;;;;4985041;28;20201;-53
2022/05/21 04:12:55;;;;;;;4.27;3.93;;;15.60;99.90;;;;;;4980796;28;20444;-52
2022/05/21 04:15:21;;;;;;;4.07;3.77;;;15.50;1.00;;;;;;4985396;28;20228;-51
2022/05/21 04:17:46;;;;;;;4.80;4.40;;;15.50;98.60;;;;;;4979715;28;20200;-53
2022/05/21 04:20:15;;;;;;;4.70;4.30;;;15.50;52.40;;;;;;4987920;28;20284;-54
2022/05/21 04:22:41;;;;;;;5.80;4.50;;;15.60;65.90;;;;;;4988745;28;20221;-49
2022/05/21 04:25:08;;;;;;;4.83;4.40;;;15.60;1.00;;;;;;4988011;28;20481;-52
2022/05/21 04:27:35;;;;;;;5.73;4.00;;;15.50;1.00;;;;;;4985874;28;20443;-53
2022/05/21 04:30:07;;;;;;;4.70;3.97;;;15.50;1.00;;;;;;4989082;28;20948;-50
2022/05/21 04:32:32;;;;;;;4.60;4.23;;;15.50;1.00;;;;;;4986706;28;20458;-55
2022/05/21 04:34:58;;;;;;;4.57;4.17;;;15.50;1.00;;;;;;4985922;28;20443;-51
2022/05/21 04:37:23;;;;;;;4.70;4.33;;;15.50;9.70;;;;;;4975472;28;20687;-53
2022/05/21 04:39:49;;;;;;;4.67;4.37;;;15.50;1.00;;;;;;4988719;28;20192;-49
2022/05/21 04:42:14;;;;;;;5.00;4.40;;;15.50;1.00;;;;;;4986238;28;20302;-54
2022/05/21 04:44:40;;;;;;;5.20;4.70;;;15.50;99.90;;;;;;4989503;28;20198;-50
2022/05/21 04:47:06;;;;;;;7.60;4.90;;;15.40;1.00;;;;;;4980966;28;20646;-50
2022/05/21 04:49:32;;;;;;;5.20;4.80;;;15.40;99.90;;;;;;4990333;28;20267;-54
2022/05/21 04:51:57;;;;;;;5.30;4.90;;;15.50;99.90;;;;;;4989069;28;20192;-49
2022/05/21 04:54:23;;;;;;;5.80;5.40;;;15.50;99.90;;;;;;4981384;28;20200;-50
2022/05/21 04:56:49;;;;;;;5.00;4.60;;;15.40;1.00;;;;;;4983296;28;20621;-55
2022/05/21 04:59:14;;;;;;;5.40;5.00;;;15.50;99.90;;;;;;4987794;28;20447;-54
2022/05/21 05:01:41;;;;;;;6.00;5.40;;;15.50;99.90;;;;;;4987590;28;20219;-53
2022/05/21 05:04:09;;;;;;;5.50;5.00;;;15.50;99.90;;;;;;4987614;28;20193;-49
2022/05/21 05:06:36;;;;;;;4.50;4.13;;;15.60;1.00;;;;;;4984997;28;21042;-53
2022/05/21 05:09:02;;;;;;;4.90;4.50;;;15.50;1.00;;;;;;4988472;28;20553;-53
2022/05/21 05:11:28;;;;;;;4.67;4.27;;;15.50;99.90;;;;;;4989017;28;20442;-50
2022/05/21 05:13:53;;;;;;;5.13;4.63;;;15.60;1.00;;;;;;4986770;28;20444;-53
2022/05/21 05:16:19;;;;;;;5.10;4.70;;;15.60;99.90;;;;;;4987548;28;20654;-52
2022/05/21 05:18:44;;;;;;;5.30;4.90;;;15.50;99.90;;;;;;4986931;28;20193;-50
2022/05/21 05:21:10;;;;;;;5.53;5.13;;;15.50;1.00;;;;;;4982531;28;20188;-52
2022/05/21 05:23:35;;;;;;;6.50;4.90;;;15.50;99.90;;;;;;4982200;28;20223;-48
2022/05/21 05:26:01;;;;;;;5.60;5.10;;;15.50;1.00;;;;;;4987498;28;20192;-51
2022/05/21 05:28:27;;;;;;;5.30;4.80;;;15.50;99.90;;;;;;4987948;28;20208;-53
2022/05/21 05:30:53;;;;;;;5.23;4.73;;;15.50;1.00;;;;;;4983501;28;20180;-52
2022/05/21 05:33:21;;;;;;;4.73;4.30;;;15.50;96.20;;;;;;4987862;28;20435;-49
2022/05/21 05:35:48;;;;;;;5.07;4.77;;;15.50;99.90;;;;;;4986985;28;20197;-52
2022/05/21 05:38:15;;;;;;;4.97;4.67;;;15.50;99.90;;;;;;4990559;28;20458;-51
2022/05/21 05:40:45;;;;;;;4.57;4.27;;;15.40;99.90;;;;;;4991708;28;20901;-50
2022/05/21 05:43:11;;;;;;;4.77;4.43;;;15.40;99.90;;;;;;4990996;28;20474;-52
2022/05/21 05:45:37;;;;;;;4.50;4.20;;;15.40;1.00;;;;;;4993015;28;20551;-52
2022/05/21 05:48:02;;;;;;;5.13;4.70;;;15.40;99.90;;;;;;4990060;28;20550;-53
2022/05/21 05:50:28;;;;;;;4.90;4.43;;;15.40;1.00;;;;;;4992385;28;20184;-54
2022/05/21 05:52:54;;;;;;;4.60;4.20;;;15.50;99.90;;;;;;4984080;28;20450;-50
2022/05/21 05:55:20;;;;;;;5.00;4.60;;;15.60;1.00;;;;;;4992221;28;20208;-51
2022/05/21 05:57:50;;;;;;;4.83;4.43;;;15.70;1.00;;;;;;4981371;28;20184;-54
2022/05/21 06:00:16;;;;;;;4.83;4.53;;;15.70;1.00;;;;;;4985740;28;20435;-52
2022/05/21 06:03:01;;;;;;;4.60;4.20;;;15.70;1.00;;;;;;4987390;28;20483;-48
2022/05/21 06:05:30;;;;;;;4.50;4.20;;;15.60;27.80;;;;;;4995584;28;20606;-52
2022/05/21 06:08:02;;;;;;;6.13;5.20;;;15.70;99.90;;;;;;4988433;28;20924;-54
2022/05/21 06:10:32;;;;;;;5.80;5.30;;;15.70;1.00;;;;;;4980053;28;20424;-52
2022/05/21 06:12:58;;;;;;;5.00;4.50;;;15.70;1.00;;;;;;4987328;28;20531;-52
2022/05/21 06:15:24;;;;;;;4.70;4.40;;;15.70;1.00;;;;;;4992051;28;20549;-55
2022/05/21 06:17:51;;;;;;;4.70;4.40;;;15.60;1.00;;;;;;4990768;28;20439;-53
2022/05/21 06:20:20;;;;;;;4.73;4.43;;;15.60;55.10;;;;;;4982935;28;20443;-51
2022/05/21 06:22:46;;;;;;;5.30;4.37;;;15.60;1.00;;;;;;4982492;28;20866;-53
2022/05/21 06:25:17;;;;;;;4.43;4.13;;;15.60;99.90;;;;;;4983196;28;20524;-55
2022/05/21 06:27:47;;;;;;;4.60;4.00;;;15.50;1.00;;;;;;4982383;28;20431;-51
2022/05/21 06:30:14;;;;;;;4.53;4.20;;;15.60;16.20;;;;;;4982774;28;20433;-52
2022/05/21 06:32:39;;;;;;;4.23;3.83;;;15.60;91.40;;;;;;4982672;28;20447;-48
2022/05/21 06:35:06;;;;;;;5.00;4.50;;;15.50;1.00;;;;;;4983152;28;20431;-49
2022/05/21 06:37:31;;;;;;;5.00;4.53;;;15.40;1.00;;;;;;4981973;28;20196;-53
2022/05/21 06:39:57;;;;;;;5.07;4.67;;;15.30;99.90;;;;;;4983570;28;20431;-54
2022/05/21 06:42:23;;;;;;;5.00;4.60;;;15.20;1.00;;;;;;4982957;28;20216;-53
2022/05/21 06:44:50;;;;;;;4.50;4.10;;;15.20;99.90;;;;;;4983333;28;20439;-50
2022/05/21 06:47:15;;;;;;;4.90;4.50;;;15.30;99.90;;;;;;4980415;28;20204;-52
2022/05/21 06:49:41;;;;;;;4.70;4.30;;;15.30;1.00;;;;;;4981924;28;20432;-50
2022/05/21 06:52:06;;;;;;;4.47;4.17;;;15.40;99.90;;;;;;4980138;28;20193;-49
2022/05/21 06:54:32;;;;;;;5.57;5.07;;;15.40;1.00;;;;;;4979665;28;20299;-53
2022/05/21 06:56:58;;;;;;;4.47;4.07;;;15.30;1.00;;;;;;4980125;28;20298;-51
2022/05/21 06:59:24;;;;;;;5.00;4.60;;;15.20;50.50;;;;;;4981885;28;20271;-52
2022/05/21 07:01:49;;;;;;;3.90;3.67;;;15.30;1.00;;;;;;4978089;28;20200;-53
2022/05/21 07:04:15;;;;;;;4.20;3.90;;;15.40;1.00;;;;;;4981700;28;21055;-50
2022/05/21 07:09:26;;;;;;;4.40;4.00;;;15.50;92.00;;;;;;4983215;28;20407;-52
2022/05/21 07:11:52;;;;;;;5.30;4.80;;;15.60;99.90;;;;;;4981206;28;20439;-54
2022/05/21 07:14:18;;;;;;;4.20;3.90;;;15.60;1.00;;;;;;4988320;28;20446;-54
2022/05/21 07:16:45;;;;;;;4.13;3.83;;;15.50;1.00;;;;;;4986607;28;20184;-55
2022/05/21 07:19:10;;;;;;;3.93;3.63;;;15.50;94.50;;;;;;4985265;28;20824;-50
2022/05/21 07:21:36;;;;;;;4.30;3.90;;;15.60;1.00;;;;;;4984256;28;20485;-55
2022/05/21 07:24:02;;;;;;;3.87;3.67;;;15.80;99.90;;;;;;4991758;28;20433;-54
2022/05/21 07:26:28;;;;;;;4.23;3.87;;;16.00;1.00;;;;;;4991214;28;20170;-50
2022/05/21 07:28:53;;;;;;;4.30;3.70;;;16.10;1.00;;;;;;4987471;28;20327;-53
2022/05/21 07:31:19;;;;;;;4.20;3.90;;;16.20;99.90;;;;;;4978328;28;20189;-49
2022/05/21 07:33:45;;;;;;;4.20;3.90;;;16.20;99.90;;;;;;4972284;28;20187;-51
2022/05/21 07:36:11;;;;;;;3.83;3.63;;;16.30;99.90;;;;;;4977645;28;20420;-54
2022/05/21 07:38:37;;;;;;;3.80;3.50;;;16.40;99.90;;;;;;4991826;28;20407;-55
2022/05/21 07:41:03;;;;;;;3.87;3.67;;;16.50;99.90;;;;;;4990404;28;20191;-52
2022/05/21 07:43:30;;;;;;;4.30;3.90;;;16.50;99.90;;;;;;4982307;28;20469;-54
2022/05/21 07:45:57;;;;;;;4.60;3.77;;;16.70;1.00;;;;;;4990675;28;20189;-52
2022/05/21 07:48:24;;;;;;;3.77;3.50;;;16.70;1.00;;;;;;4990295;28;20431;-56
2022/05/21 07:50:56;;;;;;;3.60;3.40;;;16.60;1.00;;;;;;4988250;28;20440;-49
2022/05/21 07:53:31;;;;;;;4.30;4.00;;;16.50;1.00;;;;;;4971929;28;20465;-54
2022/05/21 07:55:57;;;;;;;4.00;3.70;;;16.60;1.00;;;;;;4977461;28;20489;-53
2022/05/21 07:58:26;;;;;;;3.70;3.50;;;16.70;1.00;;;;;;4990343;28;20796;-49
2022/05/21 08:00:52;;;;;;;3.70;3.50;;;16.90;1.00;;;;;;4981394;28;20537;-50
2022/05/21 08:03:18;;;;;;;3.43;3.23;;;16.90;99.90;;;;;;4988451;28;20559;-52
2022/05/21 08:05:45;;;;;;;4.87;3.57;;;16.80;99.90;;;;;;4978930;28;20438;-52
2022/05/21 08:08:11;;;;;;;3.60;3.40;;;17.10;99.90;;;;;;4971561;28;20433;-50
2022/05/21 08:10:39;;;;;;;3.57;3.27;;;17.30;99.90;;;;;;4983770;28;20428;-51
2022/05/21 08:13:06;;;;;;;6.40;3.80;;;17.50;95.40;;;;;;4989865;28;20430;-54
2022/05/21 08:15:31;;;;;;;3.87;3.63;;;17.70;1.00;;;;;;4990367;28;20940;-51
2022/05/21 08:17:57;;;;;;;4.07;3.70;;;17.70;1.00;;;;;;4990063;28;20493;-53
2022/05/21 08:20:22;;;;;;;3.60;3.30;;;17.80;1.00;;;;;;4982405;28;20180;-54
2022/05/21 08:28:16;;;;;;;4.10;3.90;;;18.10;1.00;;;;;;4988902;28;20461;-51
2022/05/21 08:30:44;;;;;;;4.13;3.80;;;18.00;1.00;;;;;;4989900;28;20439;-53
2022/05/21 08:33:10;;;;;;;4.43;3.87;;;18.10;1.00;;;;;;4973372;28;20207;-52
2022/05/21 08:35:40;;;;;;;4.90;4.60;;;18.30;56.90;;;;;;4985584;28;20578;-51
2022/05/21 08:38:08;;;;;;;4.20;3.90;;;18.40;1.00;;;;;;4990565;28;20518;-51
2022/05/21 08:40:57;;;;;;;4.43;4.03;;;18.30;1.00;;;;;;4988370;28;20442;-53
2022/05/21 08:43:26;;;;;;;6.40;4.03;;;17.90;1.00;;;;;;4986681;28;20502;-55
2022/05/21 08:46:17;;;;;;;3.77;3.57;;;17.60;1.00;;;;;;4990420;28;20868;-51
2022/05/21 08:49:01;;;;;;;4.00;3.80;;;17.70;1.00;;;;;;4990509;28;20847;-56
2022/05/21 08:51:34;;;;;;;4.30;4.00;;;18.00;1.00;;;;;;4989517;28;20921;-51
2022/05/21 08:54:03;;;;;;;4.73;4.33;;;18.20;1.00;;;;;;4989352;28;20455;-49
2022/05/21 08:56:29;;;;;;;5.07;4.57;;;18.40;1.00;;;;;;4983546;28;20483;-51
2022/05/21 08:59:04;;;;;;;4.33;4.10;;;18.50;1.00;;;;;;4990060;28;20427;-49
2022/05/21 09:01:29;;;;;;;4.50;4.20;;;18.60;1.00;;;;;;4981476;28;20954;-50
2022/05/21 09:03:56;;;;;;;4.40;4.00;;;19.00;1.00;;;;;;4987611;28;20439;-53
2022/05/21 09:06:46;;;;;;;5.00;4.70;;;19.30;1.00;;;;;;4976936;28;20180;-53
2022/05/21 09:09:40;;;;;;;4.27;4.07;;;19.70;99.90;;;;;;4986799;28;20494;-57
2022/05/21 09:12:15;;;;;;;4.50;4.20;;;20.10;99.90;;;;;;4982681;28;20444;-57
2022/05/21 09:14:43;;;;;;;4.27;3.90;;;20.10;99.90;;;;;;4973882;28;20458;-56
2022/05/21 09:17:14;;;;;;;4.40;4.10;;;20.20;99.90;;;;;;4978758;28;20953;-58
2022/05/21 09:19:52;;;;;;;4.20;3.90;;;20.50;99.90;;;;;;4978165;28;20437;-56
2022/05/21 09:22:20;;;;;;;4.20;4.00;;;21.00;99.90;;;;;;4979338;28;21504;-58
2022/05/21 09:24:50;;;;;;;4.73;4.40;;;21.20;99.90;;;;;;4978607;28;20455;-56
2022/05/21 09:27:34;;;;;;;4.80;4.50;;;21.40;99.90;;;;;;4979467;28;20431;-56
2022/05/21 09:30:35;;;;;;;4.97;4.67;;;21.40;99.90;;;;;;4978996;28;20896;-56
2022/05/21 09:33:21;;;;;;;4.53;4.33;;;21.50;99.90;;;;;;4979441;28;20444;-52
2022/05/21 09:35:56;;;;;;;6.20;5.80;;;21.20;99.90;;;;;;4979676;28;20961;-55
2022/05/21 09:38:25;;;;;;;4.90;4.60;;;21.00;99.90;;;;;;4978433;28;20446;-56
2022/05/21 09:41:17;;;;;;;5.00;4.70;;;21.00;99.90;;;;;;4978987;28;20435;-56
2022/05/21 09:47:15;;;;;;;4.60;4.30;;;21.40;99.90;;;;;;4977880;28;20524;-56
2022/05/21 09:49:42;;;;;;;5.40;4.93;;;22.00;99.90;;;;;;4979156;28;20449;-54
2022/05/21 09:52:20;;;;;;;5.13;4.63;;;21.60;99.90;;;;;;4978994;28;20436;-56
2022/05/21 09:54:46;;;;;;;5.20;4.90;;;20.90;99.90;;;;;;4977858;28;20448;-53
2022/05/21 09:57:37;;;;;;;4.80;4.60;;;20.80;99.90;;;;;;4979370;28;20539;-57
2022/05/21 10:00:25;;;;;;;4.37;4.10;;;20.90;99.90;;;;;;4979838;28;20205;-58
2022/05/21 10:02:56;;;;;;;5.07;4.77;;;21.40;99.90;;;;;;4979405;28;20966;-56
2022/05/21 10:05:31;;;;;;;4.60;4.30;;;21.80;99.90;;;;;;4979213;28;20447;-57
2022/05/21 10:11:14;;;;;;;4.23;4.03;;;21.70;99.90;;;;;;4985063;28;20969;-57
2022/05/21 10:13:50;;;;;;;4.53;4.33;;;21.40;99.90;;;;;;4981769;28;20441;-52
2022/05/21 10:16:40;;;;;;;4.80;4.50;;;21.70;99.90;;;;;;4984329;28;20524;-56
2022/05/21 10:19:16;;;;;;;4.77;4.47;;;21.90;99.90;;;;;;4978355;28;20845;-56
2022/05/21 10:21:53;;;;;;;4.57;4.37;;;21.40;99.90;;;;;;4987092;28;20431;-55
2022/05/21 10:24:27;;;;;;;5.90;4.60;;;20.90;99.90;;;;;;4987813;28;20429;-56
2022/05/21 10:27:04;;;;;;;4.20;3.90;;;21.10;99.90;;;;;;4975875;28;20517;-56
2022/05/21 10:29:38;;;;;;;4.60;4.30;;;21.40;99.90;;;;;;4982345;28;20520;-52
2022/05/21 10:32:29;;;;;;;4.90;4.60;;;21.40;99.90;;;;;;4990936;28;20429;-52
2022/05/21 10:34:54;;;;;;;5.03;4.63;;;21.50;99.90;;;;;;4990411;28;20441;-54
2022/05/21 10:38:02;;;;;;;5.53;4.27;;;21.70;99.90;;;;;;4996050;28;20451;-51
2022/05/21 10:41:01;;;;;;;4.37;4.07;;;21.80;99.90;;;;;;4985898;28;20234;-53
2022/05/21 10:43:36;;;;;;;4.27;4.07;;;22.90;99.90;;;;;;4985049;28;20471;-55
2022/05/21 10:46:18;;;;;;;4.70;4.40;;;23.70;99.90;;;;;;4981513;28;20489;-57
2022/05/21 10:49:13;;;;;;;3.93;3.73;;;23.90;99.90;;;;;;4983254;28;20434;-57
2022/05/21 10:52:00;;;;;;;4.70;4.40;;;23.40;99.90;;;;;;4981120;28;20534;-57
2022/05/21 10:54:28;;;;;;;4.30;4.10;;;23.80;99.90;;;;;;4984476;28;20431;-54
2022/05/21 10:57:06;;;;;;;4.37;3.97;;;23.60;99.90;;;;;;4990283;28;20478;-57
2022/05/21 10:59:48;;;;;;;4.33;3.87;;;23.30;99.90;;;;;;4987376;28;20427;-54
2022/05/21 11:02:46;;;;;;;3.77;3.60;;;23.30;99.90;;;;;;4987348;28;20476;-56
2022/05/21 11:05:51;;;;;;;4.57;4.27;;;23.60;99.90;;;;;;4989376;28;20441;-55
2022/05/21 11:08:27;;;;;;;4.40;4.10;;;24.30;99.90;;;;;;4988230;28;20443;-57
2022/05/21 11:11:11;;;;;;;5.33;4.87;;;24.50;99.90;;;;;;4993963;28;20442;-59
2022/05/21 11:13:55;;;;;;;4.97;4.67;;;24.80;99.90;;;;;;4981553;28;21146;-57
2022/05/21 11:16:29;;;;;;;4.50;4.30;;;23.90;99.90;;;;;;4991232;28;20453;-56
2022/05/21 11:19:01;;;;;;;5.00;4.80;;;23.30;99.90;;;;;;4990270;28;20447;-57
2022/05/21 11:21:56;;;;;;;4.53;4.33;;;23.10;99.90;;;;;;4987407;28;20515;-58
2022/05/21 11:24:42;;;;;;;5.20;4.80;;;23.10;99.90;;;;;;4977788;28;20517;-53
2022/05/21 11:27:36;;;;;;;5.17;4.87;;;22.60;99.90;;;;;;4978632;28;20429;-55
2022/05/21 11:30:14;;;;;;;4.43;4.23;;;21.90;99.90;;;;;;4986887;28;20415;-57
2022/05/21 11:38:38;;;;;;;4.63;4.37;;;22.90;99.90;;;;;;4985843;28;20499;-57
2022/05/21 11:41:25;;;;;;;4.50;4.30;;;24.00;99.90;;;;;;4990589;28;20435;-58
2022/05/21 11:47:15;;;;;;;3.97;3.77;;;24.10;99.90;;;;;;4989055;28;20470;-56
2022/05/21 11:49:52;;;;;;;4.50;4.30;;;23.60;99.90;;;;;;4986027;28;20459;-59
2022/05/21 11:52:26;;;;;;;4.60;4.30;;;23.10;99.90;;;;;;4976627;28;20415;-58
2022/05/21 11:54:58;;;;;;;4.80;4.50;;;23.00;99.90;;;;;;4989538;28;20438;-58
2022/05/21 11:57:32;;;;;;;3.77;3.57;;;23.50;99.90;;;;;;4979506;28;20487;-58
2022/05/21 11:59:59;;;;;;;4.20;4.00;;;24.50;99.90;;;;;;4982817;28;20437;-55
2022/05/21 12:02:28;;;;;;;4.80;4.50;;;25.80;99.90;;;;;;4979647;28;20474;-59
2022/05/21 12:04:59;;;;;;;4.80;4.37;;;26.80;99.90;;;;;;4979730;28;20436;-56
2022/05/21 12:07:43;;;;;;;3.80;3.60;;;26.10;99.90;;;;;;4978942;28;20460;-58
2022/05/21 12:10:21;;;;;;;4.53;4.33;;;25.80;99.90;;;;;;4979469;28;21146;-58
2022/05/21 12:13:09;;;;;;;4.77;4.20;;;25.30;99.90;;;;;;4985927;28;20898;-57
2022/05/21 12:15:41;;;;;;;4.57;4.37;;;24.30;99.90;;;;;;4985576;28;20882;-58
2022/05/21 12:18:30;;;;;;;3.90;3.60;;;23.70;99.90;;;;;;4982420;28;20452;-58
2022/05/21 12:20:55;;;;;;;3.77;3.57;;;23.30;99.90;;;;;;4986819;28;20438;-58
2022/05/21 12:23:33;;;;;;;4.80;4.57;;;23.10;99.90;;;;;;4987179;28;20466;-57
2022/05/21 12:26:26;;;;;;;4.60;4.30;;;22.90;99.90;;;;;;4988253;28;20246;-57
2022/05/21 12:29:12;;;;;;;4.90;4.60;;;22.80;99.90;;;;;;4988291;28;20443;-56
2022/05/21 12:31:45;;;;;;;4.70;4.50;;;22.60;99.90;;;;;;4989685;28;20419;-57
2022/05/21 12:34:22;;;;;;;4.33;4.03;;;22.30;99.90;;;;;;4989027;28;20429;-54
2022/05/21 12:37:10;;;;;;;5.50;5.20;;;22.00;99.90;;;;;;4989208;28;20453;-57
2022/05/21 12:39:59;;;;;;;5.10;4.80;;;22.10;99.90;;;;;;4986176;28;20446;-58
2022/05/21 12:42:57;;;;;;;4.87;4.50;;;22.90;99.90;;;;;;4989013;28;20463;-56
2022/05/21 12:45:50;;;;;;;4.43;4.23;;;23.60;99.90;;;;;;4987436;28;20431;-56
2022/05/21 12:48:21;;;;;;;4.30;4.10;;;23.20;99.90;;;;;;5004296;28;20940;-54
2022/05/21 12:50:52;;;;;;;4.27;3.97;;;23.10;99.90;;;;;;5006099;28;20396;-57
2022/05/21 12:53:24;;;;;;;3.77;3.47;;;22.50;99.90;;;;;;4989782;28;20429;-54
2022/05/21 12:56:02;;;;;;;4.40;4.10;;;22.40;99.90;;;;;;4979833;28;20485;-54
2022/05/21 12:58:28;;;;;;;4.40;4.20;;;23.20;99.90;;;;;;4980927;28;20434;-58
2022/05/21 13:00:56;;;;;;;4.40;4.10;;;23.50;99.90;;;;;;4980362;28;20470;-57
2022/05/21 13:03:23;;;;;;;4.43;4.13;;;23.70;99.90;;;;;;4978818;28;20775;-57
2022/05/21 13:05:59;;;;;;;3.87;3.63;;;23.70;99.90;;;;;;4981010;28;20497;-54
2022/05/21 13:08:27;;;;;;;3.77;3.57;;;22.80;99.90;;;;;;4978968;28;20462;-57
2022/05/21 13:11:18;;;;;;;4.47;4.17;;;22.40;99.90;;;;;;4980216;28;20434;-56
2022/05/21 13:13:53;;;;;;;4.20;3.90;;;22.00;99.90;;;;;;4979579;28;20834;-57
2022/05/21 13:16:23;;;;;;;4.80;4.40;;;21.80;99.90;;;;;;4981093;28;20485;-57
2022/05/21 13:18:54;;;;;;;4.40;4.10;;;21.70;99.90;;;;;;4980605;28;20430;-53
2022/05/21 13:21:36;;;;;;;4.47;4.13;;;21.80;99.90;;;;;;4979756;28;20969;-57
2022/05/21 13:24:14;;;;;;;4.00;3.80;;;21.80;99.90;;;;;;4978806;28;20464;-57
2022/05/21 13:26:40;;;;;;;4.50;4.10;;;21.70;99.90;;;;;;4985476;28;20460;-53
2022/05/21 13:29:22;;;;;;;7.27;4.00;;;21.40;99.90;;;;;;4989061;28;20411;-54
2022/05/21 13:31:50;;;;;;;4.10;3.80;;;21.20;99.90;;;;;;4988743;28;20415;-55
2022/05/21 13:34:18;;;;;;;4.60;4.30;;;21.20;99.90;;;;;;4989203;28;20388;-54
2022/05/21 13:37:13;;;;;;;4.93;4.40;;;21.10;99.90;;;;;;4987012;28;20490;-55
2022/05/21 13:39:39;;;;;;;4.00;3.73;;;20.90;99.90;;;;;;4974983;28;20449;-55
2022/05/21 13:42:18;;;;;;;4.57;4.03;;;20.70;99.90;;;;;;4978448;28;20471;-53
2022/05/21 13:44:47;;;;;;;3.93;3.63;;;20.60;99.90;;;;;;4988419;28;20486;-54
2022/05/21 13:47:27;;;;;;;4.60;4.30;;;20.40;99.90;;;;;;4978237;28;20413;-57